RYR425M EHEH-LERS
Flight info
| Callsign | RYR425M |
|---|---|
| Flight time | N/A |
| Altitude | 37000 |
| Route | WOODY N872 MEDIL DCT KOVIN DCT DUCRA UM728 RESMI UN857 DISAK DCT DIRMO DCT VALKU DCT ATSUP DCT MINSO DCT DEGOL DCT PPG DCT ALBER P84 GIR |
| Aircraft | B738/M-SDE2E3FGHIRWXY/LB1 |
Departure
| Time | N/A |
|---|---|
| Airport | Eindhoven Airport (EHEH) |
Arrival
| Time | 2026-04-25 16:39 |
|---|---|
| Airport | Reus Airport (LERS) |
| Time | Latitude | Longitude | Altitude | Speed | Heading |
|---|---|---|---|---|---|
| 2026-04-25 16:08 | 43.11625 | 2.86173 | 37045 ft | 427 kts | 181° |
| 2026-04-25 16:08 | 43.08659 | 2.86216 | 37048 ft | 426 kts | 182° |
| 2026-04-25 16:09 | 43.02723 | 2.86302 | 37048 ft | 427 kts | 182° |
| 2026-04-25 16:09 | 42.96824 | 2.86386 | 37048 ft | 427 kts | 181° |
| 2026-04-25 16:10 | 42.90889 | 2.86472 | 37047 ft | 426 kts | 181° |
| 2026-04-25 16:10 | 42.84963 | 2.86557 | 37049 ft | 426 kts | 181° |
| 2026-04-25 16:10 | 42.82004 | 2.86599 | 36862 ft | 427 kts | 181° |
| 2026-04-25 16:11 | 42.79040 | 2.86642 | 36584 ft | 422 kts | 181° |
| 2026-04-25 16:11 | 42.76123 | 2.86685 | 36194 ft | 417 kts | 181° |
| 2026-04-25 16:11 | 42.73240 | 2.86582 | 35848 ft | 411 kts | 186° |
| 2026-04-25 16:11 | 42.70405 | 2.86270 | 35465 ft | 407 kts | 187° |
| 2026-04-25 16:12 | 42.67593 | 2.85908 | 35092 ft | 404 kts | 187° |
| 2026-04-25 16:12 | 42.64802 | 2.85543 | 34723 ft | 402 kts | 187° |
| 2026-04-25 16:12 | 42.62028 | 2.85191 | 34361 ft | 400 kts | 187° |
| 2026-04-25 16:12 | 42.61092 | 2.85075 | 34240 ft | 400 kts | 187° |
| 2026-04-25 16:13 | 42.56462 | 2.84518 | 33588 ft | 403 kts | 187° |
| 2026-04-25 16:13 | 42.53662 | 2.84189 | 33176 ft | 405 kts | 186° |
| 2026-04-25 16:13 | 42.50856 | 2.83861 | 32805 ft | 405 kts | 186° |
| 2026-04-25 16:13 | 42.48031 | 2.83531 | 32363 ft | 412 kts | 186° |
| 2026-04-25 16:14 | 42.45126 | 2.83190 | 32172 ft | 426 kts | 186° |
| 2026-04-25 16:14 | 42.42125 | 2.82839 | 31927 ft | 439 kts | 186° |
| 2026-04-25 16:14 | 42.39084 | 2.82487 | 31695 ft | 438 kts | 186° |
| 2026-04-25 16:14 | 42.36053 | 2.82137 | 31430 ft | 437 kts | 186° |
| 2026-04-25 16:15 | 42.33035 | 2.81790 | 31053 ft | 432 kts | 186° |
| 2026-04-25 16:15 | 42.30057 | 2.81447 | 30637 ft | 428 kts | 186° |
| 2026-04-25 16:15 | 42.27096 | 2.81105 | 30204 ft | 425 kts | 186° |
| 2026-04-25 16:15 | 42.24161 | 2.80767 | 29708 ft | 422 kts | 186° |
| 2026-04-25 16:16 | 42.21245 | 2.80431 | 29228 ft | 419 kts | 186° |
| 2026-04-25 16:16 | 42.18359 | 2.80098 | 28781 ft | 415 kts | 185° |
| 2026-04-25 16:16 | 42.15494 | 2.79768 | 28309 ft | 412 kts | 186° |
| 2026-04-25 16:16 | 42.12650 | 2.79441 | 27858 ft | 409 kts | 186° |
| 2026-04-25 16:17 | 42.09827 | 2.79117 | 27418 ft | 406 kts | 185° |
| 2026-04-25 16:17 | 42.07025 | 2.78795 | 26973 ft | 402 kts | 185° |
| 2026-04-25 16:17 | 42.04247 | 2.78476 | 26543 ft | 399 kts | 185° |
| 2026-04-25 16:17 | 42.01490 | 2.78160 | 26116 ft | 396 kts | 185° |
| 2026-04-25 16:18 | 41.98796 | 2.77514 | 25659 ft | 393 kts | 202° |
| 2026-04-25 16:18 | 41.97985 | 2.77042 | 25526 ft | 391 kts | 209° |
| 2026-04-25 16:18 | 41.94520 | 2.73226 | 24582 ft | 391 kts | 232° |
| 2026-04-25 16:18 | 41.93103 | 2.70125 | 24001 ft | 390 kts | 247° |
| 2026-04-25 16:19 | 41.92033 | 2.66791 | 23571 ft | 388 kts | 249° |
| 2026-04-25 16:19 | 41.91013 | 2.63460 | 23098 ft | 384 kts | 249° |
| 2026-04-25 16:19 | 41.90007 | 2.60149 | 22649 ft | 381 kts | 249° |
| 2026-04-25 16:20 | 41.87990 | 2.53599 | 21683 ft | 378 kts | 248° |
| 2026-04-25 16:20 | 41.86976 | 2.50355 | 21253 ft | 375 kts | 248° |
| 2026-04-25 16:20 | 41.84954 | 2.43944 | 20371 ft | 372 kts | 248° |
| 2026-04-25 16:21 | 41.83943 | 2.40755 | 19915 ft | 370 kts | 247° |
| 2026-04-25 16:21 | 41.82937 | 2.37589 | 19539 ft | 368 kts | 247° |
| 2026-04-25 16:21 | 41.81938 | 2.34451 | 19142 ft | 365 kts | 247° |
| 2026-04-25 16:21 | 41.80947 | 2.31338 | 18624 ft | 362 kts | 247° |
| 2026-04-25 16:22 | 41.79958 | 2.28238 | 17990 ft | 362 kts | 246° |
| 2026-04-25 16:22 | 41.78968 | 2.25140 | 17568 ft | 359 kts | 246° |
| 2026-04-25 16:22 | 41.77987 | 2.22073 | 17143 ft | 357 kts | 246° |
| 2026-04-25 16:22 | 41.77012 | 2.19028 | 16753 ft | 354 kts | 246° |
| 2026-04-25 16:23 | 41.76045 | 2.16008 | 16353 ft | 352 kts | 246° |
| 2026-04-25 16:23 | 41.75392 | 2.13974 | 16081 ft | 351 kts | 247° |
| 2026-04-25 16:23 | 41.74432 | 2.10985 | 15700 ft | 349 kts | 247° |
| 2026-04-25 16:23 | 41.73164 | 2.07040 | 15188 ft | 347 kts | 247° |
| 2026-04-25 16:24 | 41.72520 | 2.05038 | 14915 ft | 346 kts | 247° |
| 2026-04-25 16:24 | 41.71578 | 2.02115 | 14496 ft | 339 kts | 247° |
| 2026-04-25 16:24 | 41.70647 | 1.99228 | 13892 ft | 336 kts | 247° |
| 2026-04-25 16:24 | 41.69718 | 1.96351 | 13141 ft | 337 kts | 247° |
| 2026-04-25 16:25 | 41.68791 | 1.93481 | 12477 ft | 335 kts | 248° |
| 2026-04-25 16:25 | 41.68180 | 1.91593 | 12074 ft | 333 kts | 247° |
| 2026-04-25 16:25 | 41.66963 | 1.87833 | 11342 ft | 326 kts | 248° |
| 2026-04-25 16:25 | 41.66078 | 1.85105 | 10786 ft | 322 kts | 248° |
| 2026-04-25 16:26 | 41.65191 | 1.82370 | 10270 ft | 317 kts | 248° |
| 2026-04-25 16:26 | 41.64335 | 1.79740 | 10141 ft | 300 kts | 248° |
| 2026-04-25 16:26 | 41.63503 | 1.77179 | 9941 ft | 291 kts | 248° |
| 2026-04-25 16:26 | 41.62703 | 1.74719 | 9828 ft | 289 kts | 248° |
| 2026-04-25 16:27 | 41.61899 | 1.72247 | 9624 ft | 292 kts | 248° |
| 2026-04-25 16:27 | 41.61081 | 1.69734 | 9326 ft | 297 kts | 248° |
| 2026-04-25 16:27 | 41.60265 | 1.67230 | 9022 ft | 298 kts | 248° |
| 2026-04-25 16:27 | 41.59439 | 1.64700 | 8724 ft | 296 kts | 248° |
| 2026-04-25 16:28 | 41.58616 | 1.62179 | 8367 ft | 297 kts | 247° |
| 2026-04-25 16:28 | 41.57793 | 1.59663 | 8051 ft | 295 kts | 247° |
| 2026-04-25 16:28 | 41.56973 | 1.57161 | 7742 ft | 293 kts | 247° |
| 2026-04-25 16:28 | 41.56157 | 1.54676 | 7444 ft | 292 kts | 247° |
| 2026-04-25 16:29 | 41.55042 | 1.52429 | 7125 ft | 292 kts | 222° |
| 2026-04-25 16:29 | 41.53308 | 1.51137 | 6966 ft | 283 kts | 194° |
| 2026-04-25 16:29 | 41.51393 | 1.50897 | 6865 ft | 275 kts | 173° |
| 2026-04-25 16:29 | 41.49512 | 1.51279 | 6782 ft | 274 kts | 169° |
| 2026-04-25 16:30 | 41.47630 | 1.51720 | 6678 ft | 275 kts | 168° |
| 2026-04-25 16:30 | 41.45740 | 1.52167 | 6588 ft | 278 kts | 168° |
| 2026-04-25 16:30 | 41.43833 | 1.52612 | 6484 ft | 279 kts | 169° |
| 2026-04-25 16:30 | 41.41922 | 1.53049 | 6377 ft | 279 kts | 168° |
| 2026-04-25 16:31 | 41.40018 | 1.53479 | 6268 ft | 275 kts | 168° |
| 2026-04-25 16:31 | 41.38165 | 1.53894 | 6160 ft | 265 kts | 168° |
| 2026-04-25 16:31 | 41.36373 | 1.54294 | 6075 ft | 258 kts | 168° |
| 2026-04-25 16:31 | 41.34602 | 1.54600 | 5974 ft | 258 kts | 180° |
| 2026-04-25 16:32 | 41.32868 | 1.53942 | 5706 ft | 263 kts | 204° |
| 2026-04-25 16:32 | 41.31231 | 1.52864 | 5405 ft | 263 kts | 204° |
| 2026-04-25 16:32 | 41.29599 | 1.51806 | 5115 ft | 257 kts | 203° |
| 2026-04-25 16:32 | 41.28001 | 1.50786 | 4814 ft | 252 kts | 203° |
| 2026-04-25 16:33 | 41.26431 | 1.49793 | 4490 ft | 248 kts | 203° |
| 2026-04-25 16:33 | 41.24912 | 1.48830 | 4344 ft | 236 kts | 204° |
| 2026-04-25 16:33 | 41.23691 | 1.47449 | 4186 ft | 232 kts | 239° |
| 2026-04-25 16:33 | 41.23129 | 1.45486 | 4069 ft | 222 kts | 250° |
| 2026-04-25 16:34 | 41.22594 | 1.43613 | 3927 ft | 212 kts | 246° |
| 2026-04-25 16:34 | 41.22059 | 1.41832 | 3863 ft | 206 kts | 247° |
| 2026-04-25 16:34 | 41.21531 | 1.40040 | 3610 ft | 209 kts | 248° |
| 2026-04-25 16:34 | 41.21006 | 1.38256 | 3364 ft | 206 kts | 247° |
| 2026-04-25 16:35 | 41.20491 | 1.36495 | 3089 ft | 202 kts | 248° |
| 2026-04-25 16:35 | 41.19992 | 1.34780 | 2797 ft | 196 kts | 247° |
| 2026-04-25 16:35 | 41.19512 | 1.33129 | 2549 ft | 187 kts | 247° |
| 2026-04-25 16:35 | 41.19049 | 1.31543 | 2316 ft | 183 kts | 247° |
| 2026-04-25 16:36 | 41.18594 | 1.29979 | 2086 ft | 180 kts | 248° |
| 2026-04-25 16:36 | 41.18441 | 1.29455 | 2000 ft | 180 kts | 247° |
| 2026-04-25 16:36 | 41.17712 | 1.26947 | 1624 ft | 164 kts | 248° |
| 2026-04-25 16:36 | 41.17317 | 1.25589 | 1394 ft | 152 kts | 247° |
| 2026-04-25 16:37 | 41.16938 | 1.24295 | 1161 ft | 149 kts | 246° |
| 2026-04-25 16:37 | 41.16563 | 1.23020 | 997 ft | 148 kts | 248° |
| 2026-04-25 16:37 | 41.16196 | 1.21745 | 810 ft | 148 kts | 248° |
| 2026-04-25 16:37 | 41.15832 | 1.20480 | 608 ft | 145 kts | 247° |
| 2026-04-25 16:38 | 41.15467 | 1.19222 | 421 ft | 149 kts | 247° |
| 2026-04-25 16:38 | 41.15098 | 1.17942 | 247 ft | 146 kts | 246° |
| 2026-04-25 16:38 | 41.14779 | 1.16854 | 241 ft | 98 kts | 249° |
| 2026-04-25 16:38 | 41.14607 | 1.16265 | 239 ft | 51 kts | 249° |
| 2026-04-25 16:39 | 41.14526 | 1.15985 | 239 ft | 14 kts | 249° |
| 2026-04-25 16:39 | 41.14541 | 1.15914 | 239 ft | 8 kts | 325° |
| 2026-04-25 16:39 | 41.14595 | 1.15885 | 240 ft | 8 kts | 335° |
| 2026-04-25 16:39 | 41.14647 | 1.15856 | 240 ft | 8 kts | 322° |
| 2026-04-25 16:40 | 41.14645 | 1.15788 | 240 ft | 8 kts | 249° |
| 2026-04-25 16:40 | 41.14633 | 1.15747 | 240 ft | 4 kts | 249° |
| 2026-04-25 16:40 | 41.14624 | 1.15716 | 240 ft | 4 kts | 249° |
| 2026-04-25 16:40 | 41.14615 | 1.15685 | 240 ft | 3 kts | 249° |
| 2026-04-25 16:41 | 41.14606 | 1.15652 | 240 ft | 4 kts | 249° |
| 2026-04-25 16:41 | 41.14598 | 1.15626 | 241 ft | 4 kts | 249° |
| 2026-04-25 16:41 | 41.14644 | 1.15571 | 241 ft | 4 kts | 338° |
| 2026-04-25 16:42 | 41.14663 | 1.15561 | 240 ft | 1 kts | 338° |
| 2026-04-25 16:42 | 41.14664 | 1.15561 | 240 ft | 0 kts | 338° |